createdAt,value
2017-07-19T00:02:22.741Z,25.50
2017-07-19T00:04:49.630Z,25.50
2017-07-19T00:07:16.601Z,25.50
2017-07-19T00:09:43.487Z,25.40
2017-07-19T00:12:10.419Z,25.40
2017-07-19T00:14:37.701Z,25.20
2017-07-19T00:17:04.579Z,25.20
2017-07-19T00:19:31.542Z,25.10
2017-07-19T00:21:58.488Z,25.00
2017-07-19T00:24:25.434Z,25.00
2017-07-19T00:26:52.352Z,25.00
2017-07-19T00:29:19.329Z,25.00
2017-07-19T00:31:46.273Z,25.00
2017-07-19T00:34:13.171Z,25.00
2017-07-19T00:36:40.180Z,25.10
2017-07-19T00:39:07.466Z,24.90
2017-07-19T00:41:34.345Z,24.90
2017-07-19T00:44:01.262Z,24.80
2017-07-19T00:46:28.156Z,24.80
2017-07-19T00:48:55.041Z,24.90
2017-07-19T00:51:22.050Z,24.80
2017-07-19T00:53:48.994Z,24.80
2017-07-19T00:56:15.943Z,24.90
2017-07-19T00:58:42.889Z,24.70
2017-07-19T01:01:09.834Z,24.70
2017-07-19T01:03:36.776Z,24.70
2017-07-19T01:06:03.702Z,24.70
2017-07-19T01:08:30.580Z,24.60
2017-07-19T01:10:57.857Z,24.50
2017-07-19T01:13:24.873Z,24.50
2017-07-19T01:15:52.214Z,24.40
2017-07-19T01:18:19.106Z,24.40
2017-07-19T01:20:45.998Z,24.40
2017-07-19T01:23:12.966Z,24.30
2017-07-19T01:25:39.856Z,24.30
2017-07-19T01:28:06.854Z,24.30
2017-07-19T01:30:33.783Z,24.30
2017-07-19T01:33:00.753Z,24.40
2017-07-19T01:35:27.702Z,24.30
2017-07-19T01:37:59.336Z,24.20
2017-07-19T01:40:26.303Z,24.20
2017-07-19T01:42:53.182Z,24.20
2017-07-19T01:45:20.093Z,24.20
2017-07-19T01:47:47.021Z,24.00
2017-07-19T01:50:13.911Z,24.00
2017-07-19T01:52:40.804Z,23.90
2017-07-19T01:55:07.729Z,24.00
2017-07-19T01:57:34.609Z,24.00
2017-07-19T02:00:01.574Z,23.90
2017-07-19T02:02:28.898Z,23.90
2017-07-19T02:04:55.809Z,23.90
2017-07-19T02:07:22.685Z,23.80
2017-07-19T02:09:49.609Z,23.80
2017-07-19T02:12:16.493Z,23.80
2017-07-19T02:14:43.822Z,23.80
2017-07-19T02:17:10.713Z,23.80
2017-07-19T02:19:37.623Z,23.80
2017-07-19T02:22:04.681Z,23.80
2017-07-19T02:24:31.974Z,23.80
2017-07-19T02:26:58.857Z,23.80
2017-07-19T02:29:25.826Z,23.70
2017-07-19T02:31:53.169Z,23.70
2017-07-19T02:34:20.117Z,23.70
2017-07-19T02:36:47.045Z,23.70
2017-07-19T02:39:14.014Z,23.70
2017-07-19T02:41:41.365Z,23.50
2017-07-19T02:44:08.311Z,23.50
2017-07-19T02:46:35.257Z,23.30
2017-07-19T02:49:02.253Z,23.20
2017-07-19T02:51:29.129Z,23.20
2017-07-19T02:53:56.097Z,23.30
2017-07-19T02:56:23.049Z,23.30
2017-07-19T02:58:49.937Z,23.30
2017-07-19T03:01:16.817Z,23.30
2017-07-19T03:03:43.836Z,23.30
2017-07-19T03:06:10.793Z,23.30
2017-07-19T03:08:37.686Z,23.30
2017-07-19T03:11:04.682Z,23.30
2017-07-19T03:13:31.630Z,23.40
2017-07-19T03:15:58.546Z,23.40
2017-07-19T03:18:25.517Z,23.40
2017-07-19T03:20:52.469Z,23.30
2017-07-19T03:23:19.358Z,23.30
2017-07-19T03:25:46.258Z,23.20
2017-07-19T03:28:13.212Z,23.30
2017-07-19T03:30:40.093Z,23.30
2017-07-19T03:33:07.006Z,23.30
2017-07-19T03:35:33.937Z,23.30
2017-07-19T03:38:00.839Z,23.20
2017-07-19T03:40:28.194Z,23.10
2017-07-19T03:42:55.513Z,23.20
2017-07-19T03:45:22.498Z,23.20
2017-07-19T03:47:49.848Z,23.10
2017-07-19T03:50:16.797Z,23.20
2017-07-19T03:52:44.148Z,23.10
2017-07-19T03:55:11.036Z,23.10
2017-07-19T03:57:38.046Z,23.20
2017-07-19T04:00:05.330Z,23.20
2017-07-19T04:02:32.237Z,23.20
2017-07-19T04:04:59.126Z,23.30
2017-07-19T04:07:26.069Z,23.40
2017-07-19T04:09:53.082Z,23.30
2017-07-19T04:12:20.020Z,23.20
2017-07-19T04:14:46.969Z,23.30
2017-07-19T04:17:13.917Z,23.40
2017-07-19T04:19:41.245Z,23.40
2017-07-19T04:22:08.166Z,23.40
2017-07-19T04:24:35.152Z,23.40
2017-07-19T04:27:03.318Z,23.50
2017-07-19T04:29:30.269Z,23.50
2017-07-19T04:31:57.217Z,23.50
2017-07-19T04:34:24.573Z,23.40
2017-07-19T04:36:51.516Z,23.40
2017-07-19T04:39:18.403Z,23.30
2017-07-19T04:41:45.321Z,23.00
2017-07-19T04:44:12.706Z,22.90
2017-07-19T04:46:39.591Z,22.90
2017-07-19T04:49:06.565Z,23.00
2017-07-19T04:51:33.843Z,23.20
2017-07-19T04:54:00.861Z,23.20
2017-07-19T04:56:27.797Z,23.40
2017-07-19T04:58:54.696Z,23.50
2017-07-19T05:01:21.606Z,23.50
2017-07-19T05:03:48.953Z,23.60
2017-07-19T05:06:16.309Z,23.70
2017-07-19T05:08:43.594Z,23.70
2017-07-19T05:11:10.566Z,23.70
2017-07-19T05:13:37.554Z,23.80
2017-07-19T05:16:04.503Z,23.90
2017-07-19T05:18:31.445Z,24.00
2017-07-19T05:20:58.344Z,24.00
2017-07-19T05:23:25.273Z,24.20
2017-07-19T05:25:52.187Z,24.20
2017-07-19T05:28:19.649Z,24.30
2017-07-19T05:30:46.973Z,24.30
2017-07-19T05:33:13.965Z,24.30
2017-07-19T05:35:41.253Z,24.30
2017-07-19T05:38:08.182Z,24.30
2017-07-19T05:40:35.076Z,24.30
2017-07-19T05:43:02.041Z,24.30
2017-07-19T05:45:29.438Z,24.50
2017-07-19T05:47:56.339Z,24.60
2017-07-19T05:50:23.701Z,24.70
2017-07-19T05:52:51.029Z,24.80
2017-07-19T05:55:17.999Z,24.80
2017-07-19T05:57:44.945Z,24.90
2017-07-19T06:00:11.886Z,25.00
2017-07-19T06:02:38.845Z,25.10
2017-07-19T06:05:06.193Z,25.20
2017-07-19T06:07:33.137Z,25.20
2017-07-19T06:10:00.026Z,25.30
2017-07-19T06:12:26.905Z,25.30
2017-07-19T06:14:53.824Z,25.40
2017-07-19T06:17:20.701Z,25.40
2017-07-19T06:19:47.666Z,25.50
2017-07-19T06:22:14.597Z,25.60
2017-07-19T06:24:41.554Z,25.70
2017-07-19T06:27:08.433Z,25.70
2017-07-19T06:29:35.376Z,25.70
2017-07-19T06:32:02.297Z,25.70
2017-07-19T06:34:29.649Z,25.60
2017-07-19T06:36:56.603Z,25.60
2017-07-19T06:39:23.953Z,25.70
2017-07-19T06:41:50.902Z,25.70
2017-07-19T06:44:17.995Z,25.90
2017-07-19T06:46:44.878Z,26.00
2017-07-19T06:49:11.757Z,26.10
2017-07-19T06:51:39.061Z,26.20
2017-07-19T06:54:06.042Z,26.20
2017-07-19T06:56:32.963Z,26.20
2017-07-19T06:58:59.846Z,26.10
2017-07-19T07:01:26.778Z,26.10
2017-07-19T07:03:53.738Z,26.10
2017-07-19T07:06:21.081Z,26.30
2017-07-19T07:08:47.992Z,26.30
2017-07-19T07:11:14.968Z,26.30
2017-07-19T07:13:41.929Z,26.30
2017-07-19T07:16:09.202Z,26.50
2017-07-19T07:18:36.121Z,26.50
2017-07-19T07:21:03.042Z,26.50
2017-07-19T07:23:29.924Z,26.60
2017-07-19T07:25:57.266Z,26.80
2017-07-19T07:28:24.214Z,26.80
2017-07-19T07:30:51.576Z,27.00
2017-07-19T07:33:18.853Z,27.10
2017-07-19T07:35:45.878Z,27.10
2017-07-19T07:38:12.784Z,27.10
2017-07-19T07:40:39.669Z,27.20
2017-07-19T07:43:06.613Z,27.20
2017-07-19T07:45:33.502Z,27.30
2017-07-19T07:48:00.380Z,27.40
2017-07-19T07:50:27.349Z,27.50
2017-07-19T07:52:54.233Z,27.60
2017-07-19T07:55:21.113Z,27.60
2017-07-19T07:57:48.089Z,27.60
2017-07-19T08:00:15.029Z,27.70
2017-07-19T08:02:41.936Z,27.80
2017-07-19T08:05:08.863Z,27.90
2017-07-19T08:07:35.769Z,27.90
2017-07-19T08:10:02.751Z,27.90
2017-07-19T08:12:29.665Z,27.90
2017-07-19T08:14:56.609Z,28.00
2017-07-19T08:17:23.516Z,28.10
2017-07-19T08:19:50.450Z,28.20
2017-07-19T08:22:17.341Z,28.20
2017-07-19T08:24:44.301Z,28.20
2017-07-19T08:27:11.608Z,28.50
2017-07-19T08:29:38.486Z,28.50
2017-07-19T08:32:05.442Z,28.50
2017-07-19T08:34:32.327Z,28.60
2017-07-19T08:36:59.212Z,28.70
2017-07-19T08:39:26.179Z,28.70
2017-07-19T08:41:53.122Z,28.80
2017-07-19T08:44:20.065Z,28.90
2017-07-19T08:46:47.013Z,29.10
2017-07-19T08:49:13.966Z,29.20
2017-07-19T08:51:41.313Z,29.30
2017-07-19T08:54:08.230Z,29.30
2017-07-19T08:56:35.112Z,29.40
2017-07-19T08:59:02.162Z,29.50
2017-07-19T09:01:29.519Z,29.60
2017-07-19T09:03:56.464Z,29.60
2017-07-19T09:06:23.378Z,29.60
2017-07-19T09:08:50.261Z,29.60
2017-07-19T09:11:17.607Z,29.60
2017-07-19T09:13:44.485Z,29.60
2017-07-19T09:16:11.393Z,29.70
2017-07-19T09:18:38.345Z,29.70
2017-07-19T09:21:05.301Z,29.80
2017-07-19T09:23:32.746Z,30.10
2017-07-19T09:25:59.743Z,30.10
2017-07-19T09:28:26.741Z,30.30
2017-07-19T09:30:53.693Z,30.20
2017-07-19T09:33:21.057Z,30.10
2017-07-19T09:35:48.041Z,30.10
2017-07-19T09:38:15.389Z,30.20
2017-07-19T09:40:42.338Z,30.20
2017-07-19T09:43:09.222Z,30.20
2017-07-19T09:45:36.174Z,30.30
2017-07-19T09:48:03.079Z,30.40
2017-07-19T09:50:30.021Z,30.40
2017-07-19T09:52:57.375Z,30.50
2017-07-19T09:55:24.662Z,30.60
2017-07-19T09:57:51.589Z,30.60
2017-07-19T10:00:18.933Z,30.60
2017-07-19T10:02:46.215Z,30.70
2017-07-19T10:05:13.226Z,30.70
2017-07-19T10:07:40.121Z,30.70
2017-07-19T10:10:07.054Z,30.90
2017-07-19T10:12:33.938Z,31.00
2017-07-19T10:15:00.827Z,31.20
2017-07-19T10:17:28.165Z,31.40
2017-07-19T10:19:55.109Z,31.40
2017-07-19T10:22:22.061Z,31.50
2017-07-19T10:24:49.001Z,31.60
2017-07-19T10:27:15.996Z,31.60
2017-07-19T10:29:43.001Z,31.70
2017-07-19T10:32:10.296Z,31.90
2017-07-19T10:34:37.297Z,31.90
2017-07-19T10:37:04.243Z,32.00
2017-07-19T10:39:31.189Z,32.20
2017-07-19T10:41:58.101Z,32.20
2017-07-19T10:44:24.981Z,32.40
2017-07-19T10:46:51.938Z,32.60
2017-07-19T10:49:19.286Z,32.50
2017-07-19T10:51:46.166Z,32.50
2017-07-19T10:54:13.083Z,32.60
2017-07-19T10:56:39.993Z,32.60
2017-07-19T10:59:06.881Z,32.60
2017-07-19T11:01:34.225Z,32.70
2017-07-19T11:04:01.174Z,32.70
2017-07-19T11:06:28.458Z,32.70
2017-07-19T11:08:55.477Z,32.70
2017-07-19T11:11:22.425Z,32.70
2017-07-19T11:13:49.706Z,32.60
2017-07-19T11:16:16.721Z,32.60
2017-07-19T11:18:43.615Z,32.60
2017-07-19T11:21:10.510Z,32.70
2017-07-19T11:23:37.466Z,32.80
2017-07-19T11:26:04.814Z,32.70
2017-07-19T11:28:31.761Z,32.70
2017-07-19T11:30:58.704Z,32.70
2017-07-19T11:33:25.656Z,32.70
2017-07-19T11:35:52.537Z,32.90
2017-07-19T11:38:19.454Z,33.00
2017-07-19T11:40:46.805Z,33.00
2017-07-19T11:43:14.160Z,33.00
2017-07-19T11:45:41.037Z,33.00
2017-07-19T11:48:07.994Z,33.00
2017-07-19T11:50:34.941Z,33.10
2017-07-19T11:53:02.310Z,33.20
2017-07-19T11:55:29.650Z,33.20
2017-07-19T11:57:56.598Z,33.20
2017-07-19T12:00:23.563Z,33.30
2017-07-19T12:02:50.485Z,33.40
2017-07-19T12:05:17.482Z,33.50
2017-07-19T12:07:44.382Z,33.40
2017-07-19T12:10:11.326Z,33.40
2017-07-19T12:12:38.214Z,33.50
2017-07-19T12:15:05.136Z,33.50
2017-07-19T12:17:32.583Z,33.80
2017-07-19T12:19:59.530Z,33.80
2017-07-19T12:22:26.804Z,33.90
2017-07-19T12:24:53.761Z,33.90
2017-07-19T12:27:20.722Z,34.00
2017-07-19T12:29:47.626Z,33.90
2017-07-19T12:32:14.959Z,33.90
2017-07-19T12:34:41.853Z,33.90
2017-07-19T12:37:08.746Z,34.00
2017-07-19T12:39:35.725Z,34.00
2017-07-19T12:42:03.065Z,34.40
2017-07-19T12:44:30.015Z,34.40
2017-07-19T12:46:56.933Z,34.50
2017-07-19T12:49:23.905Z,34.70
2017-07-19T12:51:50.822Z,34.70
2017-07-19T12:54:17.705Z,34.60
2017-07-19T12:56:45.061Z,34.70
2017-07-19T12:59:12.405Z,34.80
2017-07-19T13:01:39.357Z,34.80
2017-07-19T13:04:06.714Z,34.90
2017-07-19T13:06:33.655Z,34.90
2017-07-19T13:09:00.628Z,34.90
2017-07-19T13:11:27.978Z,34.90
2017-07-19T13:13:55.326Z,35.00
2017-07-19T13:16:22.669Z,35.00
2017-07-19T13:18:49.617Z,35.00
2017-07-19T13:21:16.582Z,35.00
2017-07-19T13:23:43.858Z,35.10
2017-07-19T13:26:10.773Z,35.10
2017-07-19T13:28:38.053Z,35.20
2017-07-19T13:31:05.065Z,35.20
2017-07-19T13:33:32.013Z,35.20
2017-07-19T13:35:58.921Z,35.20
2017-07-19T13:38:26.317Z,35.20
2017-07-19T13:40:53.222Z,35.20
2017-07-19T13:43:20.166Z,35.30
2017-07-19T13:45:47.118Z,35.20
2017-07-19T13:48:13.998Z,35.30
2017-07-19T13:50:40.901Z,35.40
2017-07-19T13:53:07.846Z,35.50
2017-07-19T13:55:34.794Z,35.60
2017-07-19T13:58:01.751Z,35.60
2017-07-19T14:00:28.790Z,35.60
2017-07-19T14:02:55.670Z,35.60
2017-07-19T14:05:22.681Z,35.70
2017-07-19T14:07:50.332Z,35.70
2017-07-19T14:10:17.218Z,35.70
2017-07-19T14:12:44.242Z,35.80
2017-07-19T14:15:11.191Z,35.80
2017-07-19T14:17:38.065Z,35.90
2017-07-19T14:20:05.077Z,35.80
2017-07-19T14:22:32.672Z,35.80
2017-07-19T14:24:59.569Z,35.70
2017-07-19T14:27:26.534Z,35.70
2017-07-19T14:29:53.477Z,35.80
2017-07-19T14:32:20.452Z,35.90
2017-07-19T14:34:47.369Z,36.10
2017-07-19T14:37:14.321Z,36.30
2017-07-19T14:39:41.378Z,36.30
2017-07-19T14:42:08.721Z,36.50
2017-07-19T14:44:35.669Z,36.50
2017-07-19T14:47:02.626Z,36.70
2017-07-19T14:49:29.974Z,36.70
2017-07-19T14:51:56.926Z,36.70
2017-07-19T14:54:24.272Z,36.70
2017-07-19T14:56:51.217Z,36.70
2017-07-19T14:59:18.168Z,36.80
2017-07-19T15:01:45.114Z,36.90
2017-07-19T15:04:12.034Z,36.30
2017-07-19T15:06:39.006Z,35.60
2017-07-19T15:09:05.962Z,35.60
2017-07-19T15:11:33.305Z,34.90
2017-07-19T15:14:00.258Z,34.90
2017-07-19T15:16:27.609Z,34.80
2017-07-19T15:18:54.585Z,34.80
2017-07-19T15:21:21.914Z,34.40
2017-07-19T15:23:48.860Z,34.40
2017-07-19T15:26:15.769Z,34.30
2017-07-19T15:28:42.757Z,34.20
2017-07-19T15:31:10.109Z,33.90
2017-07-19T15:33:37.058Z,33.90
2017-07-19T15:36:04.008Z,33.90
2017-07-19T15:38:31.345Z,34.50
2017-07-19T15:40:58.294Z,34.50
2017-07-19T15:43:25.241Z,35.00
2017-07-19T15:45:52.158Z,34.70
2017-07-19T15:48:19.129Z,34.20
2017-07-19T15:50:46.065Z,34.00
2017-07-19T15:53:13.021Z,34.10
2017-07-19T15:55:39.978Z,34.40
2017-07-19T15:58:07.430Z,34.40
2017-07-19T16:00:34.319Z,34.30
2017-07-19T16:03:01.218Z,34.30
2017-07-19T16:05:28.164Z,33.70
2017-07-19T16:07:55.118Z,33.30
2017-07-19T16:10:22.465Z,32.90
2017-07-19T16:12:49.349Z,32.90
2017-07-19T16:15:16.261Z,32.50
2017-07-19T16:17:43.225Z,32.10
2017-07-19T16:20:10.546Z,30.30
2017-07-19T16:22:37.514Z,30.30
2017-07-19T16:25:04.862Z,29.50
2017-07-19T16:27:31.769Z,29.50
2017-07-19T16:29:58.761Z,29.00
2017-07-19T16:32:25.734Z,29.00
2017-07-19T16:34:52.651Z,28.90
2017-07-19T16:37:19.982Z,29.00
2017-07-19T16:39:46.913Z,29.00
2017-07-19T16:42:13.799Z,29.10
2017-07-19T16:44:40.698Z,29.30
2017-07-19T16:47:07.735Z,29.30
2017-07-19T16:49:34.643Z,29.20
2017-07-19T16:52:01.989Z,29.30
2017-07-19T16:54:28.947Z,29.30
2017-07-19T16:56:56.238Z,28.60
2017-07-19T16:59:23.266Z,28.60
2017-07-19T17:01:50.150Z,28.30
2017-07-19T17:04:17.034Z,28.10
2017-07-19T17:06:43.997Z,28.00
2017-07-19T17:09:11.281Z,27.70
2017-07-19T17:11:38.182Z,27.70
2017-07-19T17:14:05.121Z,27.50
2017-07-19T17:16:32.023Z,27.50
2017-07-19T17:18:58.936Z,27.60
2017-07-19T17:21:26.286Z,27.80
2017-07-19T17:23:53.645Z,28.20
2017-07-19T17:26:20.981Z,28.40
2017-07-19T17:28:47.896Z,28.40
2017-07-19T17:31:14.817Z,28.80
2017-07-19T17:33:41.925Z,29.00
2017-07-19T17:36:08.823Z,29.10
2017-07-19T17:38:35.724Z,29.40
2017-07-19T17:41:03.077Z,29.50
2017-07-19T17:43:30.426Z,29.10
2017-07-19T17:45:57.361Z,29.10
2017-07-19T17:48:24.329Z,28.80
2017-07-19T17:50:51.680Z,28.60
2017-07-19T17:53:19.021Z,28.60
2017-07-19T17:55:45.981Z,28.60
2017-07-19T17:58:12.902Z,28.90
2017-07-19T18:00:39.915Z,29.40
2017-07-19T18:03:06.817Z,29.90
2017-07-19T18:05:33.774Z,30.40
2017-07-19T18:08:01.117Z,30.30
2017-07-19T18:10:28.012Z,30.40
2017-07-19T18:12:54.898Z,30.30
2017-07-19T18:15:21.902Z,30.00
2017-07-19T18:17:48.902Z,30.10
2017-07-19T18:20:15.851Z,30.20
2017-07-19T18:22:42.802Z,30.20
2017-07-19T18:25:10.154Z,29.90
2017-07-19T18:27:37.101Z,29.90
2017-07-19T18:30:04.057Z,29.70
2017-07-19T18:32:31.425Z,29.40
2017-07-19T18:34:58.870Z,29.50
2017-07-19T18:37:26.221Z,29.50
2017-07-19T18:39:53.141Z,29.60
2017-07-19T18:42:20.117Z,29.60
2017-07-19T18:44:47.061Z,29.50
2017-07-19T18:47:14.009Z,29.30
2017-07-19T18:49:41.361Z,29.30
2017-07-19T18:52:08.306Z,29.30
2017-07-19T18:54:35.255Z,29.30
2017-07-19T18:57:02.247Z,29.40
2017-07-19T18:59:29.149Z,29.40
2017-07-19T19:01:56.097Z,29.40
2017-07-19T19:04:23.006Z,29.50
2017-07-19T19:06:49.998Z,29.50
2017-07-19T19:09:17.341Z,29.30
2017-07-19T19:11:44.264Z,29.30
2017-07-19T19:14:11.239Z,29.20
2017-07-19T19:16:38.586Z,29.10
2017-07-19T19:19:05.477Z,29.10
2017-07-19T19:21:32.381Z,28.80
2017-07-19T19:23:59.326Z,28.60
2017-07-19T19:26:26.270Z,28.50
2017-07-19T19:28:53.155Z,28.30
2017-07-19T19:31:20.161Z,28.20
2017-07-19T19:33:47.117Z,28.10
2017-07-19T19:36:14.494Z,28.00
2017-07-19T19:38:41.829Z,27.90
2017-07-19T19:41:09.182Z,27.70
2017-07-19T19:43:36.270Z,27.70
2017-07-19T19:46:03.150Z,27.60
2017-07-19T19:48:30.118Z,27.60
2017-07-19T19:50:57.066Z,27.50
2017-07-19T19:53:24.009Z,27.40
2017-07-19T19:55:50.969Z,27.40
2017-07-19T19:58:18.317Z,27.20
2017-07-19T20:00:45.506Z,27.20
2017-07-19T20:03:12.420Z,27.20
2017-07-19T20:05:39.356Z,27.00
2017-07-19T20:08:06.237Z,26.90
2017-07-19T20:10:33.150Z,26.80
2017-07-19T20:13:00.509Z,26.80
2017-07-19T20:15:27.394Z,26.80
2017-07-19T20:17:54.407Z,26.70
2017-07-19T20:20:21.706Z,26.70
2017-07-19T20:22:48.596Z,26.70
2017-07-19T20:25:15.553Z,26.70
2017-07-19T20:27:42.900Z,26.70
2017-07-19T20:30:09.790Z,26.70
2017-07-19T20:32:36.793Z,26.70
2017-07-19T20:35:03.745Z,26.70
2017-07-19T20:37:30.694Z,26.60
2017-07-19T20:39:58.049Z,26.50
2017-07-19T20:42:25.401Z,26.50
2017-07-19T20:44:52.363Z,26.60
2017-07-19T20:47:19.702Z,26.40
2017-07-19T20:49:46.650Z,26.40
2017-07-19T20:52:13.599Z,26.40
2017-07-19T20:54:40.885Z,26.30
2017-07-19T20:57:07.791Z,26.30
2017-07-19T20:59:34.750Z,26.20
2017-07-19T21:02:02.108Z,26.30
2017-07-19T21:04:29.431Z,26.20
2017-07-19T21:06:56.402Z,26.20
2017-07-19T21:09:23.519Z,26.20
2017-07-19T21:11:50.506Z,26.10
2017-07-19T21:14:17.817Z,26.10
2017-07-19T21:16:44.807Z,26.10
2017-07-19T21:19:11.754Z,26.10
2017-07-19T21:21:39.057Z,26.10
2017-07-19T21:24:05.985Z,26.10
2017-07-19T21:26:32.896Z,26.00
2017-07-19T21:28:59.846Z,26.00
2017-07-19T21:31:27.215Z,26.00
2017-07-19T21:33:54.558Z,25.90
2017-07-19T21:36:21.517Z,25.90
2017-07-19T21:38:48.865Z,25.50
2017-07-19T21:41:16.217Z,25.30
2017-07-19T21:43:43.604Z,25.20
2017-07-19T21:46:10.513Z,25.20
2017-07-19T21:48:37.466Z,25.30
2017-07-19T21:51:04.849Z,25.40
2017-07-19T21:53:31.757Z,25.40
2017-07-19T21:55:58.705Z,25.30
2017-07-19T21:58:25.631Z,25.40
2017-07-19T22:00:52.597Z,25.10
2017-07-19T22:03:19.483Z,24.90
2017-07-19T22:05:46.401Z,24.80
2017-07-19T22:08:13.744Z,24.60
2017-07-19T22:10:40.693Z,24.60
2017-07-19T22:13:07.610Z,24.70
2017-07-19T22:15:34.581Z,24.70
2017-07-19T22:18:01.529Z,24.70
2017-07-19T22:20:28.573Z,24.70
2017-07-19T22:22:55.520Z,24.60
2017-07-19T22:25:23.290Z,24.60
2017-07-19T22:27:50.237Z,24.60
2017-07-19T22:30:17.162Z,24.50
2017-07-19T22:32:44.045Z,24.50
2017-07-19T22:35:11.389Z,24.50
2017-07-19T22:37:38.332Z,24.50
2017-07-19T22:40:05.283Z,24.40
2017-07-19T22:42:32.635Z,24.40
2017-07-19T22:44:59.581Z,24.40
2017-07-19T22:47:26.529Z,24.40
2017-07-19T22:49:53.472Z,24.40
2017-07-19T22:52:20.521Z,24.50
2017-07-19T22:54:47.474Z,24.60
2017-07-19T22:57:14.753Z,24.60
2017-07-19T22:59:41.701Z,24.60
2017-07-19T23:02:08.614Z,24.50
2017-07-19T23:04:35.561Z,24.50
2017-07-19T23:07:02.505Z,24.60
2017-07-19T23:09:29.453Z,24.70
2017-07-19T23:11:56.346Z,24.70
2017-07-19T23:14:23.267Z,24.80
2017-07-19T23:16:50.545Z,24.90
2017-07-19T23:19:17.465Z,24.90
2017-07-19T23:21:44.782Z,25.00
2017-07-19T23:24:11.749Z,25.10
2017-07-19T23:26:38.629Z,25.10
2017-07-19T23:29:05.642Z,25.20
2017-07-19T23:31:32.590Z,25.20
2017-07-19T23:33:59.534Z,25.20
2017-07-19T23:36:26.445Z,25.10
2017-07-19T23:38:53.330Z,25.10
2017-07-19T23:41:20.688Z,25.10
2017-07-19T23:43:47.957Z,25.10
2017-07-19T23:46:15.303Z,25.10
2017-07-19T23:48:42.613Z,25.00
2017-07-19T23:51:09.502Z,25.00
2017-07-19T23:53:36.811Z,25.10
2017-07-19T23:56:03.800Z,25.10
2017-07-19T23:58:31.147Z,25.20
